Time;durP1;ratioP1;P1;durP2;ratioP2;P2;SDS_P1;SDS_P2;PMS_P1;PMS_P2;Temp;Humidity;BMP_temperature;BMP_pressure;BME280_temperature;BME280_humidity;BME280_pressure;Samples;Min_cycle;Max_cycle;Signal;HPM_P1;HPM_P2
2023/09/17 00:03:03;;;;;;;7.72;4.82;;;;;;;;;;6065977;23;20178;-85
2023/09/17 00:06:09;;;;;;;11.57;5.30;;;;;;;;;;6064820;23;20178;-87
2023/09/17 00:09:17;;;;;;;7.20;4.72;;;;;;;;;;6065675;23;20193;-87
2023/09/17 00:12:22;;;;;;;9.60;5.10;;;;;;;;;;6065313;23;20174;-87
2023/09/17 00:15:27;;;;;;;8.93;5.63;;;;;;;;;;6065574;23;20179;-87
2023/09/17 00:18:32;;;;;;;10.38;5.00;;;;;;;;;;6065298;23;20174;-87
2023/09/17 00:21:39;;;;;;;9.57;5.70;;;;;;;;;;6066590;23;20203;-88
2023/09/17 00:24:44;;;;;;;10.55;4.85;;;;;;;;;;6065993;23;20170;-89
2023/09/17 00:27:49;;;;;;;8.27;4.78;;;;;;;;;;6078268;23;20319;-87
2023/09/17 00:30:54;;;;;;;7.32;4.72;;;;;;;;;;6079093;23;20197;-86
2023/09/17 00:33:59;;;;;;;9.40;5.45;;;;;;;;;;6080642;23;20223;-87
2023/09/17 00:37:07;;;;;;;9.60;4.97;;;;;;;;;;6081707;23;20219;-87
2023/09/17 00:40:13;;;;;;;8.35;4.70;;;;;;;;;;6083132;23;20174;-87
2023/09/17 00:43:19;;;;;;;9.23;5.07;;;;;;;;;;6082142;23;20174;-87
2023/09/17 00:46:24;;;;;;;7.88;4.82;;;;;;;;;;6082175;23;20174;-87
2023/09/17 00:49:29;;;;;;;11.30;5.78;;;;;;;;;;6081782;23;20242;-88
2023/09/17 00:52:35;;;;;;;7.13;4.97;;;;;;;;;;6082587;23;20174;-89
2023/09/17 00:55:40;;;;;;;10.40;5.10;;;;;;;;;;6082740;23;20174;-88
2023/09/17 00:58:45;;;;;;;9.00;5.00;;;;;;;;;;6082291;23;20173;-88
2023/09/17 01:01:51;;;;;;;10.85;5.45;;;;;;;;;;6082006;23;20174;-86
2023/09/17 01:04:56;;;;;;;10.57;5.20;;;;;;;;;;6082554;23;20175;-86
2023/09/17 01:08:03;;;;;;;9.68;5.22;;;;;;;;;;6088515;23;20175;-88
2023/09/17 01:11:10;;;;;;;7.68;5.05;;;;;;;;;;6089090;23;20194;-87
2023/09/17 01:14:15;;;;;;;10.23;5.35;;;;;;;;;;6087794;23;20173;-87
2023/09/17 01:17:22;;;;;;;9.50;5.72;;;;;;;;;;6087439;23;20499;-85
2023/09/17 01:20:30;;;;;;;9.73;5.47;;;;;;;;;;6085177;23;20195;-86
2023/09/17 01:23:41;;;;;;;12.10;5.38;;;;;;;;;;6090176;23;20201;-87
2023/09/17 01:26:47;;;;;;;8.23;5.22;;;;;;;;;;6086978;23;20296;-88
2023/09/17 01:29:54;;;;;;;9.95;5.28;;;;;;;;;;6086784;23;20219;-87
2023/09/17 01:33:01;;;;;;;8.15;4.75;;;;;;;;;;6085641;23;20181;-87
2023/09/17 01:36:08;;;;;;;8.77;4.90;;;;;;;;;;6082451;23;20178;-87
2023/09/17 01:39:18;;;;;;;11.25;5.82;;;;;;;;;;6085269;23;20281;-89
2023/09/17 01:42:24;;;;;;;9.35;5.50;;;;;;;;;;6087535;23;20178;-87
2023/09/17 01:45:32;;;;;;;8.93;5.43;;;;;;;;;;6085376;23;20306;-87
2023/09/17 01:48:38;;;;;;;9.27;5.72;;;;;;;;;;6090667;23;20187;-87
2023/09/17 01:51:44;;;;;;;10.05;5.15;;;;;;;;;;6089398;23;20219;-86
2023/09/17 01:54:49;;;;;;;10.27;5.03;;;;;;;;;;6089266;23;20214;-89
2023/09/17 01:57:55;;;;;;;12.07;5.32;;;;;;;;;;6089191;23;20191;-89
2023/09/17 02:01:03;;;;;;;8.85;4.90;;;;;;;;;;6088605;23;20167;-86
2023/09/17 02:04:08;;;;;;;8.10;5.15;;;;;;;;;;6079404;23;20258;-89
2023/09/17 02:07:15;;;;;;;9.23;5.43;;;;;;;;;;6079166;23;20219;-86
2023/09/17 02:10:20;;;;;;;11.10;5.53;;;;;;;;;;6079386;23;20194;-87
2023/09/17 02:13:25;;;;;;;11.05;5.40;;;;;;;;;;6080705;23;20159;-89
2023/09/17 02:16:32;;;;;;;11.48;5.57;;;;;;;;;;6080616;23;20178;-88
2023/09/17 02:19:42;;;;;;;13.30;6.40;;;;;;;;;;6081581;23;20171;-87
2023/09/17 02:22:50;;;;;;;12.80;6.43;;;;;;;;;;6082010;23;20292;-88
2023/09/17 02:25:57;;;;;;;17.58;6.60;;;;;;;;;;6081087;23;20193;-90
2023/09/17 02:29:04;;;;;;;12.90;6.68;;;;;;;;;;6064222;23;20195;-88
2023/09/17 02:32:11;;;;;;;17.05;7.13;;;;;;;;;;6064971;23;20619;-89
2023/09/17 02:35:16;;;;;;;14.55;7.63;;;;;;;;;;6076464;23;20299;-87
2023/09/17 02:38:21;;;;;;;13.98;7.20;;;;;;;;;;6058654;23;20171;-88
2023/09/17 02:41:26;;;;;;;13.57;8.02;;;;;;;;;;6059152;23;20167;-87
2023/09/17 02:44:31;;;;;;;12.75;7.13;;;;;;;;;;6059508;23;20291;-87
2023/09/17 02:47:40;;;;;;;11.45;6.68;;;;;;;;;;6059219;23;20191;-87
2023/09/17 02:50:45;;;;;;;12.23;6.70;;;;;;;;;;6059768;23;20191;-86
2023/09/17 02:53:50;;;;;;;15.07;7.15;;;;;;;;;;6057622;23;20190;-88
2023/09/17 02:56:55;;;;;;;10.55;6.40;;;;;;;;;;6057838;23;20497;-87
2023/09/17 03:00:00;;;;;;;13.93;7.00;;;;;;;;;;6060803;23;20186;-87
2023/09/17 03:03:07;;;;;;;11.07;6.47;;;;;;;;;;6059815;23;20199;-87
2023/09/17 03:06:12;;;;;;;10.57;6.70;;;;;;;;;;6059132;23;20687;-87
2023/09/17 03:09:18;;;;;;;13.52;6.85;;;;;;;;;;6058898;23;20287;-88
2023/09/17 03:12:25;;;;;;;12.80;6.80;;;;;;;;;;6059437;23;20191;-88
2023/09/17 03:15:30;;;;;;;18.45;6.68;;;;;;;;;;6058200;23;20311;-87
2023/09/17 03:18:37;;;;;;;11.18;6.57;;;;;;;;;;6059166;23;20178;-88
2023/09/17 03:21:42;;;;;;;11.55;6.80;;;;;;;;;;6059289;23;20242;-88
2023/09/17 03:24:48;;;;;;;16.73;7.65;;;;;;;;;;6059168;23;20175;-89
2023/09/17 03:27:54;;;;;;;13.05;7.95;;;;;;;;;;6059149;23;20229;-87
2023/09/17 03:31:01;;;;;;;15.60;6.82;;;;;;;;;;6057703;23;20323;-89
2023/09/17 03:34:08;;;;;;;11.27;7.03;;;;;;;;;;6058187;23;20174;-89
2023/09/17 03:37:14;;;;;;;19.73;7.80;;;;;;;;;;6058514;23;20627;-86
2023/09/17 03:40:19;;;;;;;14.20;7.38;;;;;;;;;;6058608;23;20190;-88
2023/09/17 03:43:27;;;;;;;13.18;6.95;;;;;;;;;;6058785;23;20227;-88
2023/09/17 03:46:32;;;;;;;14.55;6.68;;;;;;;;;;6058513;23;20178;-88
2023/09/17 03:49:39;;;;;;;10.05;6.85;;;;;;;;;;6059532;23;20245;-88
2023/09/17 03:52:47;;;;;;;11.02;7.00;;;;;;;;;;6059126;23;20283;-87
2023/09/17 03:55:52;;;;;;;10.90;6.82;;;;;;;;;;6058798;23;20174;-87
2023/09/17 03:58:57;;;;;;;14.45;7.00;;;;;;;;;;6059578;23;20198;-88
2023/09/17 04:02:03;;;;;;;11.57;7.15;;;;;;;;;;6059039;23;20166;-88
2023/09/17 04:05:14;;;;;;;13.40;7.40;;;;;;;;;;6058439;23;20603;-85
2023/09/17 04:08:19;;;;;;;15.45;6.90;;;;;;;;;;6058068;23;20171;-90
2023/09/17 04:11:24;;;;;;;11.65;6.90;;;;;;;;;;6058188;23;20174;-88
2023/09/17 04:14:31;;;;;;;13.98;7.05;;;;;;;;;;6057338;23;20174;-87
2023/09/17 04:17:36;;;;;;;15.43;7.68;;;;;;;;;;6058181;23;20208;-87
2023/09/17 04:20:43;;;;;;;15.98;7.60;;;;;;;;;;6057340;23;20194;-87
2023/09/17 04:23:48;;;;;;;15.45;8.13;;;;;;;;;;6059012;23;20179;-88
2023/09/17 04:26:53;;;;;;;12.48;7.38;;;;;;;;;;6058697;23;20193;-87
2023/09/17 04:29:58;;;;;;;16.25;7.82;;;;;;;;;;6058161;23;20277;-86
2023/09/17 04:33:04;;;;;;;14.82;7.55;;;;;;;;;;6059471;23;20174;-89
2023/09/17 04:36:10;;;;;;;17.20;7.65;;;;;;;;;;6058363;23;20218;-87
2023/09/17 04:39:16;;;;;;;13.15;6.88;;;;;;;;;;6059818;23;20863;-88
2023/09/17 04:42:21;;;;;;;18.35;7.38;;;;;;;;;;6059965;23;20530;-88
2023/09/17 04:45:36;;;;;;;15.43;7.35;;;;;;;;;;6059256;23;20190;-88
2023/09/17 04:49:04;;;;;;;11.90;6.78;;;;;;;;;;6058270;23;20253;-89
2023/09/17 04:52:11;;;;;;;14.60;6.93;;;;;;;;;;6058200;23;20173;-88
2023/09/17 04:55:17;;;;;;;14.15;6.82;;;;;;;;;;6060048;23;20170;-89
2023/09/17 04:58:23;;;;;;;13.48;7.18;;;;;;;;;;6059207;23;20173;-89
2023/09/17 05:01:29;;;;;;;13.35;7.00;;;;;;;;;;6064787;23;20261;-90
2023/09/17 05:04:34;;;;;;;11.75;6.82;;;;;;;;;;6066572;23;20236;-86
2023/09/17 05:07:41;;;;;;;15.70;6.30;;;;;;;;;;6064977;23;20178;-86
2023/09/17 05:10:46;;;;;;;16.50;6.65;;;;;;;;;;6066397;23;20191;-88
2023/09/17 05:13:51;;;;;;;13.05;6.93;;;;;;;;;;6062843;23;20175;-89
2023/09/17 05:16:57;;;;;;;15.00;7.18;;;;;;;;;;6062727;23;20288;-86
2023/09/17 05:20:05;;;;;;;17.05;6.80;;;;;;;;;;6067904;23;20235;-86
2023/09/17 05:23:13;;;;;;;13.32;6.45;;;;;;;;;;6082438;23;20171;-88
2023/09/17 05:26:18;;;;;;;11.25;6.05;;;;;;;;;;6060391;23;20193;-88
2023/09/17 05:29:23;;;;;;;10.70;6.38;;;;;;;;;;6061017;23;20175;-88
2023/09/17 05:32:28;;;;;;;11.23;6.50;;;;;;;;;;6061955;23;20170;-89
2023/09/17 05:35:34;;;;;;;13.73;6.40;;;;;;;;;;6061559;23;20229;-88
2023/09/17 05:38:40;;;;;;;9.88;6.60;;;;;;;;;;6060738;23;20169;-87
2023/09/17 05:41:46;;;;;;;10.35;6.97;;;;;;;;;;6059296;23;20257;-88
2023/09/17 05:44:51;;;;;;;15.07;7.38;;;;;;;;;;6059302;23;20182;-88
2023/09/17 05:47:56;;;;;;;18.45;7.80;;;;;;;;;;6061050;23;20218;-88
2023/09/17 05:51:03;;;;;;;12.85;7.00;;;;;;;;;;6061831;23;20169;-89
2023/09/17 05:54:10;;;;;;;15.25;6.85;;;;;;;;;;6062033;23;20221;-87
2023/09/17 05:57:15;;;;;;;12.23;6.88;;;;;;;;;;6061765;23;20303;-88
2023/09/17 06:00:21;;;;;;;15.85;6.88;;;;;;;;;;6061271;23;20185;-89
2023/09/17 06:03:26;;;;;;;11.20;6.55;;;;;;;;;;6060817;23;20174;-87
2023/09/17 06:06:31;;;;;;;11.02;6.72;;;;;;;;;;6060340;23;20177;-86
2023/09/17 06:09:37;;;;;;;12.88;7.10;;;;;;;;;;6060524;23;20219;-88
2023/09/17 06:12:43;;;;;;;15.52;7.25;;;;;;;;;;6060499;23;20166;-86
2023/09/17 06:15:48;;;;;;;17.95;6.93;;;;;;;;;;6060606;23;20601;-90
2023/09/17 06:18:54;;;;;;;25.45;7.68;;;;;;;;;;6061579;23;20224;-89
2023/09/17 06:22:00;;;;;;;13.88;7.40;;;;;;;;;;6060165;23;20241;-87
2023/09/17 06:25:08;;;;;;;12.40;7.13;;;;;;;;;;6062274;23;20174;-88
2023/09/17 06:28:13;;;;;;;12.40;6.97;;;;;;;;;;6031091;23;20304;-87
2023/09/17 06:31:18;;;;;;;13.93;7.05;;;;;;;;;;6048202;23;20171;-87
2023/09/17 06:34:24;;;;;;;13.88;6.93;;;;;;;;;;6048054;23;20175;-86
2023/09/17 06:37:30;;;;;;;12.65;7.25;;;;;;;;;;6048864;23;20175;-89
2023/09/17 06:40:40;;;;;;;16.80;8.13;;;;;;;;;;6047578;23;20175;-88
2023/09/17 06:43:45;;;;;;;13.43;7.85;;;;;;;;;;6047094;23;20175;-87
2023/09/17 06:46:50;;;;;;;16.58;7.88;;;;;;;;;;6048563;23;20175;-87
2023/09/17 06:49:56;;;;;;;12.07;7.28;;;;;;;;;;6050958;23;20251;-87
2023/09/17 06:53:01;;;;;;;12.27;7.43;;;;;;;;;;6035933;23;20658;-90
2023/09/17 06:56:08;;;;;;;14.35;7.43;;;;;;;;;;6033267;23;20171;-88
2023/09/17 06:59:14;;;;;;;12.02;7.53;;;;;;;;;;6046724;23;20175;-89
2023/09/17 07:02:18;;;;;;;13.23;7.82;;;;;;;;;;6049125;23;20195;-86
2023/09/17 07:05:23;;;;;;;11.93;7.28;;;;;;;;;;6049534;23;20478;-88
2023/09/17 07:08:30;;;;;;;14.77;7.60;;;;;;;;;;6048642;23;20172;-87
2023/09/17 07:11:37;;;;;;;11.88;7.15;;;;;;;;;;6049121;23;20251;-86
2023/09/17 07:14:42;;;;;;;10.05;6.72;;;;;;;;;;6048561;23;20175;-87
2023/09/17 07:17:47;;;;;;;11.52;6.80;;;;;;;;;;6048605;23;20175;-88
2023/09/17 07:20:52;;;;;;;10.23;6.85;;;;;;;;;;6048861;23;20632;-88
2023/09/17 07:23:56;;;;;;;14.43;7.28;;;;;;;;;;6052575;23;20500;-89
2023/09/17 07:27:03;;;;;;;11.07;7.10;;;;;;;;;;6069645;23;20201;-88
2023/09/17 07:30:09;;;;;;;11.10;6.75;;;;;;;;;;6063479;23;20170;-89
2023/09/17 07:33:14;;;;;;;11.05;6.88;;;;;;;;;;6062898;23;20170;-87
2023/09/17 07:36:19;;;;;;;10.00;6.43;;;;;;;;;;6060884;23;20174;-87
2023/09/17 07:39:24;;;;;;;8.35;5.93;;;;;;;;;;6061037;23;20167;-90
2023/09/17 07:42:45;;;;;;;9.55;5.97;;;;;;;;;;6062445;23;20304;-87
2023/09/17 07:45:50;;;;;;;11.40;5.65;;;;;;;;;;6063217;23;20223;-88
2023/09/17 07:48:55;;;;;;;8.00;5.57;;;;;;;;;;6061324;23;20166;-87
2023/09/17 07:52:00;;;;;;;15.20;5.78;;;;;;;;;;6063698;23;20171;-89
2023/09/17 07:55:06;;;;;;;8.35;5.28;;;;;;;;;;6061201;23;20247;-88
2023/09/17 07:58:13;;;;;;;10.55;5.43;;;;;;;;;;6062119;23;20230;-88
2023/09/17 08:01:19;;;;;;;8.93;5.30;;;;;;;;;;6061542;23;20246;-89
2023/09/17 08:04:24;;;;;;;8.23;5.20;;;;;;;;;;6062949;23;20681;-86
2023/09/17 08:07:29;;;;;;;7.05;4.57;;;;;;;;;;6062033;23;20191;-88
2023/09/17 08:10:33;;;;;;;6.60;4.38;;;;;;;;;;6065571;23;20215;-88
2023/09/17 08:13:40;;;;;;;8.02;4.30;;;;;;;;;;6063968;23;20166;-88
2023/09/17 08:16:45;;;;;;;5.47;4.03;;;;;;;;;;6060466;23;20178;-88
2023/09/17 08:19:52;;;;;;;6.13;4.03;;;;;;;;;;6059426;23;20190;-89
2023/09/17 08:22:58;;;;;;;5.97;3.67;;;;;;;;;;6060785;23;20194;-88
2023/09/17 08:26:04;;;;;;;6.07;3.60;;;;;;;;;;6058830;23;20198;-90
2023/09/17 08:29:11;;;;;;;5.20;3.67;;;;;;;;;;6059979;23;20171;-90
2023/09/17 08:32:16;;;;;;;6.47;3.53;;;;;;;;;;6062098;23;20170;-90
2023/09/17 08:35:22;;;;;;;5.13;3.40;;;;;;;;;;6060643;23;20165;-89
2023/09/17 08:38:28;;;;;;;6.88;3.40;;;;;;;;;;6062038;23;20175;-89
2023/09/17 08:41:35;;;;;;;4.78;3.28;;;;;;;;;;6064523;23;20506;-91
2023/09/17 08:44:42;;;;;;;6.10;3.05;;;;;;;;;;6064676;23;20618;-90
2023/09/17 08:47:46;;;;;;;4.93;3.00;;;;;;;;;;6066251;23;20222;-89
2023/09/17 08:50:53;;;;;;;4.45;3.30;;;;;;;;;;6064480;23;20177;-91
2023/09/17 08:54:03;;;;;;;5.95;3.17;;;;;;;;;;6062667;23;20228;-89
2023/09/17 08:57:09;;;;;;;5.25;3.03;;;;;;;;;;6065352;23;20258;-89
2023/09/17 09:00:19;;;;;;;5.10;3.38;;;;;;;;;;6063813;23;20231;-89
2023/09/17 09:03:27;;;;;;;4.13;2.92;;;;;;;;;;6080081;23;20493;-89
2023/09/17 09:06:32;;;;;;;5.10;3.05;;;;;;;;;;6065109;23;20177;-90
2023/09/17 09:09:37;;;;;;;4.35;3.03;;;;;;;;;;6062212;23;20174;-89
2023/09/17 09:12:43;;;;;;;4.13;3.10;;;;;;;;;;6059094;23;20217;-90
2023/09/17 09:15:50;;;;;;;5.65;3.30;;;;;;;;;;6059862;23;20258;-89
2023/09/17 09:18:55;;;;;;;3.35;2.80;;;;;;;;;;6059831;23;20170;-88
2023/09/17 09:22:00;;;;;;;6.10;3.40;;;;;;;;;;6060535;23;20166;-91
2023/09/17 09:25:06;;;;;;;8.55;3.45;;;;;;;;;;6060128;23;20166;-88
2023/09/17 09:28:11;;;;;;;3.90;3.05;;;;;;;;;;6062175;23;20158;-89
2023/09/17 09:31:18;;;;;;;7.15;3.42;;;;;;;;;;6061375;23;20245;-87
2023/09/17 09:34:22;;;;;;;3.72;3.33;;;;;;;;;;6063611;23;20178;-90
2023/09/17 09:37:28;;;;;;;3.88;3.38;;;;;;;;;;6061824;23;20225;-89
2023/09/17 09:40:35;;;;;;;5.53;2.92;;;;;;;;;;6059360;23;20209;-89
2023/09/17 09:43:41;;;;;;;3.75;2.92;;;;;;;;;;6059356;23;20244;-89
2023/09/17 09:46:48;;;;;;;3.80;2.70;;;;;;;;;;6059781;23;20166;-91
2023/09/17 09:49:53;;;;;;;4.18;3.30;;;;;;;;;;6059376;23;20364;-91
2023/09/17 09:52:59;;;;;;;5.88;2.97;;;;;;;;;;6060547;23;20198;-87
2023/09/17 09:56:04;;;;;;;3.70;3.00;;;;;;;;;;6060497;23;20177;-90
2023/09/17 09:59:09;;;;;;;3.10;2.65;;;;;;;;;;6062254;23;20174;-91
2023/09/17 10:02:20;;;;;;;4.78;2.75;;;;;;;;;;6077101;23;20253;-91
2023/09/17 10:05:37;;;;;;;2.67;2.45;;;;;;;;;;6065196;23;20182;-90
2023/09/17 10:08:42;;;;;;;3.60;2.70;;;;;;;;;;6068471;23;20178;-90
2023/09/17 10:11:49;;;;;;;4.93;2.80;;;;;;;;;;6067362;23;20505;-89
2023/09/17 10:14:54;;;;;;;2.90;2.40;;;;;;;;;;6065924;23;20162;-89
2023/09/17 10:18:02;;;;;;;4.63;3.40;;;;;;;;;;6066372;23;20166;-88
2023/09/17 10:21:07;;;;;;;4.43;2.47;;;;;;;;;;6066784;23;20557;-89
2023/09/17 10:24:15;;;;;;;3.72;2.75;;;;;;;;;;6066318;23;20206;-88
2023/09/17 10:27:23;;;;;;;3.72;2.80;;;;;;;;;;6067282;23;20197;-90
2023/09/17 10:30:28;;;;;;;3.78;2.75;;;;;;;;;;6067646;23;20195;-90
2023/09/17 10:33:36;;;;;;;3.22;2.60;;;;;;;;;;6067907;23;20205;-87
2023/09/17 10:36:44;;;;;;;4.70;2.70;;;;;;;;;;6070448;23;20504;-88
2023/09/17 10:39:50;;;;;;;3.85;2.88;;;;;;;;;;6070221;23;20634;-89
2023/09/17 10:42:57;;;;;;;7.10;2.70;;;;;;;;;;6069772;23;20182;-90
2023/09/17 10:46:02;;;;;;;6.50;2.55;;;;;;;;;;6070226;23;20170;-89
2023/09/17 10:49:11;;;;;;;3.75;2.97;;;;;;;;;;6069955;23;20218;-91
2023/09/17 10:52:16;;;;;;;3.15;2.50;;;;;;;;;;6069367;23;20255;-88
2023/09/17 10:55:23;;;;;;;2.90;2.40;;;;;;;;;;6069125;23;20174;-89
2023/09/17 10:58:32;;;;;;;5.95;3.22;;;;;;;;;;6069493;23;20170;-90
2023/09/17 11:01:38;;;;;;;3.00;2.70;;;;;;;;;;6069699;23;20617;-87
2023/09/17 11:04:45;;;;;;;5.15;2.83;;;;;;;;;;6069228;23;20246;-90
2023/09/17 11:07:52;;;;;;;2.40;2.20;;;;;;;;;;6070109;23;20185;-89
2023/09/17 11:10:58;;;;;;;2.60;2.40;;;;;;;;;;6068276;23;20174;-91
2023/09/17 11:14:04;;;;;;;3.10;2.20;;;;;;;;;;6069605;23;20198;-90
2023/09/17 11:17:11;;;;;;;2.88;2.47;;;;;;;;;;6068156;23;20178;-89
2023/09/17 11:20:20;;;;;;;4.13;2.47;;;;;;;;;;6068114;23;20199;-90
2023/09/17 11:23:36;;;;;;;5.22;2.60;;;;;;;;;;6063092;23;20170;-90
2023/09/17 11:26:42;;;;;;;7.45;2.60;;;;;;;;;;6063665;23;20523;-90
2023/09/17 11:29:47;;;;;;;2.58;2.13;;;;;;;;;;6081187;23;20174;-89
2023/09/17 11:32:54;;;;;;;4.40;2.17;;;;;;;;;;6082096;23;20211;-89
2023/09/17 11:36:03;;;;;;;2.92;2.10;;;;;;;;;;6084470;23;20182;-89
2023/09/17 11:39:08;;;;;;;4.07;2.38;;;;;;;;;;6081186;23;20215;-91
2023/09/17 11:42:14;;;;;;;3.08;2.30;;;;;;;;;;6076727;23;20315;-87
2023/09/17 11:45:19;;;;;;;2.55;2.20;;;;;;;;;;6076794;23;20177;-89
2023/09/17 11:48:25;;;;;;;2.63;2.05;;;;;;;;;;6080131;23;20169;-87
2023/09/17 11:51:34;;;;;;;2.63;2.35;;;;;;;;;;6081251;23;20288;-90
2023/09/17 11:54:48;;;;;;;4.70;2.05;;;;;;;;;;6082837;23;20294;-90
2023/09/17 11:57:52;;;;;;;2.25;2.05;;;;;;;;;;6080400;23;20257;-88
2023/09/17 12:00:58;;;;;;;7.00;2.47;;;;;;;;;;6081781;23;20177;-91
2023/09/17 12:04:05;;;;;;;3.05;2.08;;;;;;;;;;6086603;23;20501;-89
2023/09/17 12:07:12;;;;;;;2.97;2.10;;;;;;;;;;6084582;23;20262;-90
2023/09/17 12:10:20;;;;;;;2.60;2.30;;;;;;;;;;6084178;23;20244;-89
2023/09/17 12:13:25;;;;;;;3.22;2.22;;;;;;;;;;6085273;23;20196;-87
2023/09/17 12:16:30;;;;;;;2.92;2.40;;;;;;;;;;6085621;23;20194;-90
2023/09/17 12:19:35;;;;;;;3.83;2.50;;;;;;;;;;6083620;23;20226;-89
2023/09/17 12:22:42;;;;;;;3.20;2.58;;;;;;;;;;6085433;23;20210;-88
2023/09/17 12:25:47;;;;;;;4.53;2.20;;;;;;;;;;6083850;23;20177;-89
2023/09/17 12:28:52;;;;;;;2.28;2.08;;;;;;;;;;6067975;23;20218;-90
2023/09/17 12:31:57;;;;;;;3.83;2.30;;;;;;;;;;6068697;23;20173;-88
2023/09/17 12:35:03;;;;;;;2.33;2.13;;;;;;;;;;6067210;23;20219;-89
2023/09/17 12:38:10;;;;;;;3.20;2.47;;;;;;;;;;6070299;23;20203;-89
2023/09/17 12:41:16;;;;;;;3.03;2.60;;;;;;;;;;6067016;23;20177;-90
2023/09/17 12:44:22;;;;;;;2.72;2.30;;;;;;;;;;6066900;23;20170;-88
2023/09/17 12:47:27;;;;;;;6.95;2.42;;;;;;;;;;6065272;23;20193;-90
2023/09/17 12:50:32;;;;;;;3.05;2.40;;;;;;;;;;6064318;23;20730;-90
2023/09/17 12:53:39;;;;;;;5.38;2.45;;;;;;;;;;6076641;23;20238;-91
2023/09/17 12:56:44;;;;;;;4.63;2.42;;;;;;;;;;6059172;23;20187;-90
2023/09/17 12:59:51;;;;;;;2.80;2.20;;;;;;;;;;6059388;23;20174;-90
2023/09/17 13:02:55;;;;;;;3.53;2.40;;;;;;;;;;6060196;23;20222;-90
2023/09/17 13:06:01;;;;;;;2.78;2.40;;;;;;;;;;6063294;23;20189;-89
2023/09/17 13:09:09;;;;;;;4.65;2.50;;;;;;;;;;6066266;23;20169;-89
2023/09/17 13:12:17;;;;;;;2.70;2.50;;;;;;;;;;6083347;23;20185;-90
2023/09/17 13:15:22;;;;;;;3.95;2.40;;;;;;;;;;6064458;23;20174;-89
2023/09/17 13:18:27;;;;;;;3.78;2.50;;;;;;;;;;6065341;23;20199;-90
2023/09/17 13:21:34;;;;;;;4.20;2.25;;;;;;;;;;6068197;23;20169;-89
2023/09/17 13:24:40;;;;;;;3.30;2.10;;;;;;;;;;6067420;23;20170;-89
2023/09/17 13:27:46;;;;;;;5.20;2.63;;;;;;;;;;6081736;23;20197;-90
2023/09/17 13:30:51;;;;;;;3.13;2.50;;;;;;;;;;6083875;23;20178;-89
2023/09/17 13:33:57;;;;;;;2.42;2.22;;;;;;;;;;6084696;23;20198;-89
2023/09/17 13:37:03;;;;;;;3.42;2.28;;;;;;;;;;6085717;23;20207;-89
2023/09/17 13:40:12;;;;;;;4.45;2.22;;;;;;;;;;6083156;23;20170;-88
2023/09/17 13:43:17;;;;;;;3.40;2.50;;;;;;;;;;6084446;23;20630;-90
2023/09/17 13:46:22;;;;;;;4.35;2.47;;;;;;;;;;6084673;23;20254;-89
2023/09/17 13:49:28;;;;;;;3.15;2.30;;;;;;;;;;6084500;23;20174;-89
2023/09/17 13:52:33;;;;;;;5.63;3.20;;;;;;;;;;6084599;23;20226;-87
2023/09/17 13:55:39;;;;;;;3.20;2.47;;;;;;;;;;6085656;23;20363;-89
2023/09/17 13:58:44;;;;;;;3.20;2.33;;;;;;;;;;6086802;23;20162;-89
2023/09/17 14:01:50;;;;;;;3.63;2.50;;;;;;;;;;6084317;23;20194;-89
2023/09/17 14:04:55;;;;;;;2.85;2.17;;;;;;;;;;6083911;23;20198;-88
2023/09/17 14:08:00;;;;;;;2.60;2.33;;;;;;;;;;6084659;23;20166;-87
2023/09/17 14:11:07;;;;;;;9.70;2.88;;;;;;;;;;6085002;23;20199;-88
2023/09/17 14:14:12;;;;;;;5.38;2.80;;;;;;;;;;6079109;23;20526;-90
2023/09/17 14:17:22;;;;;;;3.63;2.85;;;;;;;;;;6085320;23;20173;-89
2023/09/17 14:20:27;;;;;;;3.08;2.50;;;;;;;;;;6090004;23;20165;-87
2023/09/17 14:23:33;;;;;;;4.80;2.83;;;;;;;;;;6082266;23;20170;-89
2023/09/17 14:26:39;;;;;;;3.90;2.47;;;;;;;;;;6081596;23;20238;-87
2023/09/17 14:29:44;;;;;;;4.50;2.58;;;;;;;;;;6082555;23;20174;-89
2023/09/17 14:32:51;;;;;;;4.07;2.25;;;;;;;;;;6084717;23;20254;-88
2023/09/17 14:35:56;;;;;;;4.60;2.30;;;;;;;;;;6088541;23;20173;-89
2023/09/17 14:39:02;;;;;;;3.75;2.47;;;;;;;;;;6081659;23;20170;-89
2023/09/17 14:42:09;;;;;;;16.40;10.60;;;;;;;;;;6083770;23;20157;-88
2023/09/17 14:45:14;;;;;;;6.65;4.05;;;;;;;;;;6082781;23;20169;-88
2023/09/17 14:48:19;;;;;;;6.43;3.50;;;;;;;;;;6082512;23;20173;-89
2023/09/17 14:51:26;;;;;;;4.28;2.72;;;;;;;;;;6083967;23;20610;-89
2023/09/17 14:54:31;;;;;;;3.95;2.60;;;;;;;;;;6081457;23;20193;-88
2023/09/17 14:57:41;;;;;;;5.00;2.67;;;;;;;;;;6082494;23;20174;-87
2023/09/17 15:00:49;;;;;;;4.05;2.83;;;;;;;;;;6083477;23;20215;-89
2023/09/17 15:03:55;;;;;;;9.85;3.05;;;;;;;;;;6083404;23;20186;-89
2023/09/17 15:07:00;;;;;;;6.40;2.70;;;;;;;;;;6082273;23;20174;-89
2023/09/17 15:10:05;;;;;;;3.05;2.72;;;;;;;;;;6084964;23;20185;-91
2023/09/17 15:13:13;;;;;;;3.67;2.90;;;;;;;;;;6088504;23;20211;-87
2023/09/17 15:16:23;;;;;;;6.53;2.80;;;;;;;;;;6083995;23;20605;-88
2023/09/17 15:19:30;;;;;;;13.20;8.15;;;;;;;;;;6084022;23;20170;-89
2023/09/17 15:22:35;;;;;;;9.25;3.67;;;;;;;;;;6080945;23;20169;-89
2023/09/17 15:25:42;;;;;;;7.15;2.88;;;;;;;;;;6083561;23;20162;-90
2023/09/17 15:28:49;;;;;;;10.88;2.72;;;;;;;;;;6064353;23;20555;-88
2023/09/17 15:31:54;;;;;;;6.38;3.67;;;;;;;;;;6065731;23;20174;-88
2023/09/17 15:34:59;;;;;;;6.03;3.08;;;;;;;;;;6066955;23;20276;-89
2023/09/17 15:38:05;;;;;;;5.60;3.20;;;;;;;;;;6065402;23;20169;-90
2023/09/17 15:41:11;;;;;;;4.88;3.00;;;;;;;;;;6067054;23;20248;-90
2023/09/17 15:44:24;;;;;;;8.18;3.20;;;;;;;;;;6070899;23;20276;-88
2023/09/17 15:47:29;;;;;;;9.30;3.03;;;;;;;;;;6070458;23;20166;-89
2023/09/17 15:50:35;;;;;;;7.68;3.22;;;;;;;;;;6069893;23;20178;-89
2023/09/17 15:53:40;;;;;;;4.13;3.05;;;;;;;;;;6086992;23;20193;-88
2023/09/17 15:56:46;;;;;;;4.93;3.35;;;;;;;;;;6072074;23;20224;-90
2023/09/17 15:59:53;;;;;;;4.13;3.03;;;;;;;;;;6068948;23;20175;-88
2023/09/17 16:02:58;;;;;;;6.95;3.20;;;;;;;;;;6066399;23;20206;-88
2023/09/17 16:06:04;;;;;;;7.95;4.45;;;;;;;;;;6082388;23;20170;-88
2023/09/17 16:09:10;;;;;;;10.73;8.48;;;;;;;;;;6062829;23;20170;-88
2023/09/17 16:12:15;;;;;;;7.60;3.38;;;;;;;;;;6067949;23;20253;-89
2023/09/17 16:15:22;;;;;;;10.88;4.57;;;;;;;;;;6062370;23;20194;-88
2023/09/17 16:18:27;;;;;;;6.78;3.80;;;;;;;;;;6059873;23;20218;-90
2023/09/17 16:21:33;;;;;;;5.65;3.40;;;;;;;;;;6060979;23;20170;-88
2023/09/17 16:24:40;;;;;;;7.43;3.83;;;;;;;;;;6061848;23;20170;-88
2023/09/17 16:27:45;;;;;;;6.10;3.85;;;;;;;;;;6075116;23;20193;-89
2023/09/17 16:30:52;;;;;;;7.18;3.85;;;;;;;;;;6076936;23;20175;-88
2023/09/17 16:33:56;;;;;;;7.13;3.83;;;;;;;;;;6083025;23;20202;-88
2023/09/17 16:37:02;;;;;;;5.25;3.63;;;;;;;;;;6081650;23;20502;-85
2023/09/17 16:40:07;;;;;;;6.25;3.50;;;;;;;;;;6082381;23;20204;-86
2023/09/17 16:43:13;;;;;;;12.05;6.57;;;;;;;;;;6081968;23;20174;-88
2023/09/17 16:46:21;;;;;;;19.05;5.57;;;;;;;;;;6082447;23;20213;-89
2023/09/17 16:49:26;;;;;;;7.15;3.72;;;;;;;;;;6083006;23;20175;-88
2023/09/17 16:52:31;;;;;;;4.78;3.38;;;;;;;;;;6083807;23;20170;-89
2023/09/17 16:55:37;;;;;;;11.35;7.72;;;;;;;;;;6082779;23;20251;-87
2023/09/17 16:58:43;;;;;;;32.95;18.05;;;;;;;;;;6082290;23;20222;-88
2023/09/17 17:01:50;;;;;;;9.25;4.25;;;;;;;;;;6083208;23;20174;-89
2023/09/17 17:05:00;;;;;;;6.32;3.88;;;;;;;;;;6084140;23;20668;-89
2023/09/17 17:08:08;;;;;;;7.55;4.43;;;;;;;;;;6083133;23;20234;-90
2023/09/17 17:11:14;;;;;;;9.35;5.32;;;;;;;;;;6083355;23;20228;-90
2023/09/17 17:14:19;;;;;;;9.55;5.30;;;;;;;;;;6083401;23;20653;-89
2023/09/17 17:17:27;;;;;;;9.18;5.10;;;;;;;;;;6083463;23;20178;-88
2023/09/17 17:20:32;;;;;;;10.65;4.25;;;;;;;;;;6082774;23;20178;-88
2023/09/17 17:23:37;;;;;;;9.25;4.63;;;;;;;;;;6082804;23;20163;-88
2023/09/17 17:26:43;;;;;;;11.88;5.70;;;;;;;;;;6083308;23;20210;-87
2023/09/17 17:29:48;;;;;;;7.80;4.70;;;;;;;;;;6082163;23;20227;-88
2023/09/17 17:32:55;;;;;;;9.52;4.68;;;;;;;;;;6080921;23;20228;-88
2023/09/17 17:36:02;;;;;;;9.00;5.05;;;;;;;;;;6085266;23;20186;-89
2023/09/17 17:39:07;;;;;;;9.98;6.53;;;;;;;;;;6079796;23;20179;-89
2023/09/17 17:42:12;;;;;;;10.75;5.93;;;;;;;;;;6079522;23;20174;-88
2023/09/17 17:45:17;;;;;;;6.68;4.60;;;;;;;;;;6082287;23;20244;-90
2023/09/17 17:48:23;;;;;;;10.27;4.45;;;;;;;;;;6082486;23;20272;-89
2023/09/17 17:51:28;;;;;;;7.93;4.55;;;;;;;;;;6084049;23;20248;-89
2023/09/17 17:54:35;;;;;;;72.47;37.63;;;;;;;;;;6083728;23;20193;-89
2023/09/17 17:57:40;;;;;;;8.90;4.68;;;;;;;;;;6081912;23;20178;-90
2023/09/17 18:00:46;;;;;;;8.15;4.35;;;;;;;;;;6082292;23;20170;-91
2023/09/17 18:03:52;;;;;;;11.65;5.15;;;;;;;;;;6082874;23;20178;-90
2023/09/17 18:06:57;;;;;;;9.02;4.65;;;;;;;;;;6082443;23;20174;-87
2023/09/17 18:10:08;;;;;;;7.40;4.47;;;;;;;;;;6083505;23;20178;-89
2023/09/17 18:13:14;;;;;;;9.07;4.97;;;;;;;;;;6081478;23;20169;-88
2023/09/17 18:16:20;;;;;;;6.97;4.47;;;;;;;;;;6085156;23;20151;-88
2023/09/17 18:19:40;;;;;;;8.40;4.85;;;;;;;;;;6085106;23;20242;-89
2023/09/17 18:22:45;;;;;;;11.77;4.20;;;;;;;;;;6083354;23;20226;-89
2023/09/17 18:25:59;;;;;;;6.30;4.30;;;;;;;;;;6085780;23;20215;-91
2023/09/17 18:29:06;;;;;;;9.93;4.40;;;;;;;;;;6052956;23;20227;-87
2023/09/17 18:32:11;;;;;;;6.45;4.47;;;;;;;;;;6069207;23;20178;-88